createdAt,value
2018-09-16T12:31:48.956Z,23.70
2018-09-16T12:34:17.371Z,24.60
2018-09-16T12:36:46.073Z,24.60
2018-09-16T12:39:15.156Z,25.10
2018-09-16T12:41:44.129Z,25.70
2018-09-16T12:44:12.561Z,26.50
2018-09-16T12:46:40.889Z,26.50
2018-09-16T12:49:10.543Z,26.40
2018-09-16T12:51:39.093Z,26.60
2018-09-16T12:54:08.232Z,27.00
2018-09-16T12:56:36.715Z,27.70
2018-09-16T12:59:05.660Z,28.40
2018-09-16T13:01:34.058Z,28.70
2018-09-16T13:04:02.500Z,28.60
2018-09-16T13:06:30.888Z,27.80
2018-09-16T13:08:59.254Z,26.40
2018-09-16T13:11:27.685Z,25.70
2018-09-16T13:13:56.149Z,25.50
2018-09-16T13:16:24.495Z,25.70
2018-09-16T13:18:52.890Z,25.90
2018-09-16T13:21:21.245Z,25.70
2018-09-16T13:23:49.863Z,25.70
2018-09-16T13:26:18.312Z,26.30
2018-09-16T13:28:46.677Z,27.10
2018-09-16T13:31:15.053Z,27.80
2018-09-16T13:33:44.054Z,26.70
2018-09-16T13:36:12.589Z,26.50
2018-09-16T13:38:41.011Z,26.00
2018-09-16T13:41:09.415Z,26.10
2018-09-16T13:43:37.787Z,26.30
2018-09-16T13:46:06.193Z,25.80
2018-09-16T13:48:34.513Z,25.70
2018-09-16T13:51:02.958Z,26.60
2018-09-16T13:53:38.116Z,28.70
2018-09-16T13:56:06.844Z,30.60
2018-09-16T13:58:35.213Z,32.10
2018-09-16T14:01:03.613Z,32.60
2018-09-16T14:03:31.966Z,32.90
2018-09-16T14:06:00.325Z,31.90
2018-09-16T14:08:28.668Z,31.50
2018-09-16T14:10:57.227Z,31.10
2018-09-16T14:13:25.562Z,31.60
2018-09-16T14:15:54.043Z,31.90
2018-09-16T14:18:22.468Z,32.10
2018-09-16T14:20:50.795Z,32.90
2018-09-16T14:23:19.196Z,33.80
2018-09-16T14:25:47.595Z,34.40
2018-09-16T14:28:15.988Z,34.70
2018-09-16T14:30:44.774Z,35.80
2018-09-16T14:33:13.190Z,36.40
2018-09-16T14:35:41.554Z,36.20
2018-09-16T14:38:09.877Z,35.70
2018-09-16T14:40:38.270Z,34.00
2018-09-16T14:43:06.653Z,32.80
2018-09-16T14:45:35.029Z,32.50
2018-09-16T14:48:03.528Z,31.40
2018-09-16T14:50:31.891Z,30.80
2018-09-16T14:53:00.260Z,30.30
2018-09-16T14:55:28.693Z,29.90
2018-09-16T14:57:57.123Z,29.40
2018-09-16T15:00:25.569Z,29.10
2018-09-16T15:02:53.986Z,28.90
2018-09-16T15:05:22.390Z,28.60
2018-09-16T15:07:50.801Z,28.60
2018-09-16T15:10:19.464Z,28.50
2018-09-16T15:12:47.908Z,28.80
2018-09-16T15:15:16.395Z,29.70
2018-09-16T15:17:45.399Z,30.60
2018-09-16T15:20:13.765Z,30.30
2018-09-16T15:22:42.195Z,30.50
2018-09-16T15:25:11.392Z,30.60
2018-09-16T15:27:40.008Z,30.20
2018-09-16T15:30:08.536Z,29.20
2018-09-16T15:32:36.991Z,27.90
2018-09-16T15:35:05.512Z,26.80
2018-09-16T15:37:33.994Z,25.90
2018-09-16T18:55:32.191Z,25.40
